Time;durP1;ratioP1;P1;durP2;ratioP2;P2;SDS_P1;SDS_P2;PMS_P1;PMS_P2;Temp;Humidity;BMP_temperature;BMP_pressure;BME280_temperature;BME280_humidity;BME280_pressure;Samples;Min_cycle;Max_cycle;Signal;HPM_P1;HPM_P2
2021/11/17 02:26:16;;;;;;;80.47;39.78;;;;;;;0.91;48.08;101795.89;1742486;81;21137;-67
2021/11/17 02:29:13;;;;;;;77.90;39.13;;;;;;;0.91;47.71;101794.61;1765279;80;21003;-67
2021/11/17 02:32:03;;;;;;;79.15;35.95;;;;;;;0.61;47.69;101795.81;1769299;80;21145;-67
2021/11/17 02:34:49;;;;;;;72.42;34.35;;;;;;;-0.31;49.81;101793.59;1674094;84;21081;-69
2021/11/17 02:37:38;;;;;;;59.33;30.57;;;;;;;-0.20;50.76;101793.08;1748180;80;21110;-66
2021/11/17 02:40:45;;;;;;;66.95;33.40;;;;;;;-0.37;51.03;101782.84;1765261;80;21543;-67
2021/11/17 02:43:37;;;;;;;69.85;35.92;;;;;;;-0.33;51.59;101791.58;1687915;83;21537;-68
2021/11/17 02:46:28;;;;;;;71.92;34.58;;;;;;;-0.25;52.17;101780.49;1726929;82;21166;-69
2021/11/17 02:49:09;;;;;;;62.17;31.77;;;;;;;-0.34;52.21;101783.52;1728657;82;21005;-67
2021/11/17 02:52:05;;;;;;;73.50;33.45;;;;;;;-0.33;51.71;101781.33;1726288;82;20984;-67
2021/11/17 02:54:40;;;;;;;59.45;30.23;;;;;;;-0.33;51.44;101781.33;1732406;82;22086;-68
2021/11/17 02:57:41;;;;;;;54.27;28.87;;;;;;;0.05;51.14;101780.33;1725309;82;21004;-67
2021/11/17 03:01:05;;;;;;;55.20;28.10;;;;;;;0.26;50.21;101775.83;1728159;82;22356;-69
2021/11/17 03:04:16;;;;;;;61.28;31.25;;;;;;;0.33;49.84;101778.00;1727508;82;21144;-67
2021/11/17 03:06:54;;;;;;;56.73;28.62;;;;;;;0.56;49.13;101769.55;1705598;83;21063;-68
2021/11/17 03:09:41;;;;;;;45.88;24.40;;;;;;;0.68;48.53;101768.47;1728393;82;21065;-69
2021/11/17 03:12:43;;;;;;;40.12;22.45;;;;;;;0.64;48.68;101767.41;1728889;82;21126;-69
2021/11/17 03:15:36;;;;;;;48.75;21.70;;;;;;;0.57;48.70;101761.80;1703652;83;21464;-67
2021/11/17 03:18:41;;;;;;;43.17;22.75;;;;;;;0.82;48.49;101757.90;1728958;82;21458;-68
2021/11/17 03:21:28;;;;;;;43.52;21.23;;;;;;;0.81;48.61;101753.69;1692691;82;21047;-68
2021/11/17 03:24:24;;;;;;;39.45;20.43;;;;;;;0.79;48.83;101760.62;1712161;82;21540;-69
2021/11/17 03:27:08;;;;;;;42.67;19.92;;;;;;;0.81;48.87;101765.23;1709724;82;20991;-66
2021/11/17 03:29:58;;;;;;;47.05;21.55;;;;;;;0.88;48.79;101778.11;1761841;80;21806;-67
2021/11/17 03:32:50;;;;;;;69.80;33.92;;;;;;;0.94;48.91;101769.60;1767788;80;21105;-66
2021/11/17 03:35:46;;;;;;;69.67;35.03;;;;;;;1.04;49.02;101762.70;1704523;83;21094;-66
2021/11/17 03:38:30;;;;;;;55.33;30.02;;;;;;;1.13;49.05;101765.57;1726932;82;21122;-69
2021/11/17 03:41:33;;;;;;;64.42;28.23;;;;;;;1.42;48.77;101761.38;1704135;83;21140;-67
2021/11/17 03:44:33;;;;;;;49.95;24.32;;;;;;;1.18;48.66;101757.63;1734111;82;21160;-67
2021/11/17 03:47:22;;;;;;;41.80;21.97;;;;;;;1.13;48.33;101759.61;1724888;82;21015;-68
2021/11/17 03:50:32;;;;;;;43.38;21.33;;;;;;;1.10;48.05;101755.49;1733685;82;20940;-67
2021/11/17 03:53:13;;;;;;;51.13;23.77;;;;;;;1.02;47.97;101755.06;1731281;82;21699;-67
2021/11/17 03:56:06;;;;;;;46.40;20.82;;;;;;;1.01;48.28;101747.45;1696165;82;21017;-67
2021/11/17 03:58:57;;;;;;;42.20;20.20;;;;;;;1.15;48.27;101750.91;1716357;83;21182;-68
2021/11/17 04:01:58;;;;;;;49.88;22.62;;;;;;;1.27;48.61;101744.72;1731821;81;22196;-69
2021/11/17 04:04:50;;;;;;;47.27;22.45;;;;;;;1.36;48.78;101752.72;1744016;81;25561;-68
2021/11/17 04:07:44;;;;;;;44.18;21.40;;;;;;;1.29;48.27;101748.02;1743038;81;22369;-67
2021/11/17 04:10:37;;;;;;;41.30;20.60;;;;;;;1.18;47.88;101745.61;1743742;81;21072;-68
2021/11/17 04:13:22;;;;;;;37.20;21.30;;;;;;;1.10;48.02;101751.64;1744001;81;21180;-68
2021/11/17 04:15:55;;;;;;;51.15;26.02;;;;;;;1.18;47.87;101749.47;1743748;81;21047;-69
2021/11/17 04:18:39;;;;;;;54.42;26.23;;;;;;;1.15;47.97;101758.62;1741548;81;21016;-66
2021/11/17 04:21:20;;;;;;;52.60;27.75;;;;;;;1.10;47.88;101761.05;1745052;81;20972;-68
2021/11/17 04:23:58;;;;;;;45.10;22.05;;;;;;;1.14;47.30;101762.57;1745646;81;21004;-68
2021/11/17 04:27:02;;;;;;;53.60;26.23;;;;;;;1.14;46.94;101753.58;1744870;81;21178;-68
2021/11/17 04:29:58;;;;;;;46.88;25.82;;;;;;;1.08;46.78;101761.61;1743270;81;20939;-68
2021/11/17 04:32:53;;;;;;;46.23;25.85;;;;;;;1.04;46.67;101753.70;1741593;81;21043;-67
2021/11/17 04:35:54;;;;;;;46.35;24.67;;;;;;;1.07;46.94;101753.09;1741099;81;20937;-66
2021/11/17 04:38:49;;;;;;;44.53;24.40;;;;;;;0.84;46.93;101763.80;1741455;81;21058;-67
2021/11/17 04:41:37;;;;;;;49.10;23.30;;;;;;;0.96;47.08;101766.97;1741293;81;22226;-67
2021/11/17 04:44:09;;;;;;;48.63;24.92;;;;;;;0.84;47.15;101759.48;1743297;80;21067;-67
2021/11/17 04:46:53;;;;;;;62.38;29.72;;;;;;;1.00;46.97;101764.60;1738783;80;20965;-70
2021/11/17 04:50:03;;;;;;;59.55;29.25;;;;;;;1.09;46.95;101766.66;1744837;80;21005;-66
2021/11/17 04:52:44;;;;;;;51.63;26.55;;;;;;;1.24;46.98;101764.16;1743257;81;21087;-68
2021/11/17 04:55:25;;;;;;;47.15;25.62;;;;;;;1.35;47.22;101762.64;1742732;80;25353;-68
2021/11/17 04:58:37;;;;;;;48.08;24.92;;;;;;;1.48;47.21;101756.80;1744489;81;21640;-68
2021/11/17 05:01:34;;;;;;;;;;;;;;;1.49;47.36;101764.90;1743560;80;21031;-65
2021/11/17 05:04:24;;;;;;;66.60;30.10;;;;;;;1.37;47.85;101762.57;1746007;80;20162;-66
2021/11/17 05:07:09;;;;;;;82.25;34.65;;;;;;;1.47;48.30;101763.69;1676952;85;21052;-69
2021/11/17 05:09:59;;;;;;;54.90;28.50;;;;;;;1.92;48.74;101764.06;1730625;81;21831;-68
2021/11/17 05:13:07;;;;;;;58.63;28.40;;;;;;;2.33;48.64;101756.92;1746091;80;21036;-66
2021/11/17 05:16:23;;;;;;;61.30;31.95;;;;;;;2.64;47.97;101758.91;1745993;80;20996;-65
2021/11/17 05:18:59;;;;;;;56.98;31.02;;;;;;;3.06;47.75;101751.52;1777367;80;21579;-68
2021/11/17 05:21:54;;;;;;;56.15;29.18;;;;;;;3.76;47.76;101751.75;1776828;80;21087;-68
2021/11/17 05:24:33;;;;;;;54.50;28.77;;;;;;;4.35;47.58;101752.02;1781553;78;21137;-67
2021/11/17 05:27:23;;;;;;;51.53;26.77;;;;;;;5.15;47.03;101759.31;1783692;79;20945;-70
2021/11/17 05:30:28;;;;;;;90.77;54.75;;;;;;;5.72;46.09;101765.02;1777950;80;21083;-67
2021/11/17 05:33:24;;;;;;;70.12;36.88;;;;;;;6.25;45.37;101762.77;1742837;81;21086;-71
2021/11/17 05:36:11;;;;;;;69.50;37.13;;;;;;;6.99;44.66;101757.84;1742397;81;21159;-69
2021/11/17 05:38:58;;;;;;;59.05;31.75;;;;;;;7.76;43.37;101755.81;1662919;81;21288;-67
2021/11/17 05:41:48;;;;;;;53.28;31.45;;;;;;;8.66;42.03;101753.00;1749203;81;21128;-69
2021/11/17 05:44:26;;;;;;;47.08;28.50;;;;;;;9.37;40.80;101749.69;1750917;81;21468;-67
2021/11/17 05:47:24;;;;;;;45.83;28.05;;;;;;;9.85;39.59;101757.06;1752096;80;21437;-68
2021/11/17 05:50:11;;;;;;;42.85;26.12;;;;;;;10.28;39.18;101754.42;1744978;81;21500;-67
2021/11/17 05:52:58;;;;;;;42.25;26.75;;;;;;;10.75;38.73;101746.47;1744772;81;22343;-72
2021/11/17 05:55:55;;;;;;;46.58;29.02;;;;;;;11.58;37.86;101743.91;1736353;81;21004;-69
2021/11/17 05:58:34;;;;;;;54.42;32.30;;;;;;;12.24;36.15;101743.02;1736445;81;20980;-68
2021/11/17 06:01:29;;;;;;;53.10;33.10;;;;;;;12.65;35.53;101740.02;1741808;81;21018;-70
2021/11/17 06:03:55;;;;;;;61.28;33.73;;;;;;;12.88;34.52;101735.02;1741192;81;20919;-69
2021/11/17 06:06:22;;;;;;;63.83;41.33;;;;;;;13.34;33.21;101728.34;1741662;80;22193;-69
2021/11/17 06:08:49;;;;;;;65.08;40.25;;;;;;;13.62;32.73;101728.78;1744449;81;20915;-69
2021/11/17 06:11:18;;;;;;;69.07;47.30;;;;;;;13.94;32.31;101731.48;1750984;80;21076;-68
2021/11/17 06:13:45;;;;;;;54.87;35.80;;;;;;;14.42;31.69;101732.27;1751257;80;21246;-69
2021/11/17 06:16:13;;;;;;;61.17;40.17;;;;;;;14.91;31.51;101732.00;1748634;81;21768;-69
2021/11/17 06:18:41;;;;;;;58.63;41.67;;;;;;;15.08;30.60;101732.20;1750110;81;21286;-68
2021/11/17 06:21:10;;;;;;;67.37;53.53;;;;;;;15.30;30.91;101718.70;1751748;81;21343;-67
2021/11/17 06:23:47;;;;;;;67.30;46.63;;;;;;;15.31;29.79;101721.67;1750502;80;21535;-71
2021/11/17 06:26:19;;;;;;;51.37;35.57;;;;;;;15.37;29.45;101713.56;1744230;80;22334;-68
2021/11/17 06:28:56;;;;;;;54.77;36.87;;;;;;;15.48;29.12;101719.69;1717802;81;21327;-69
2021/11/17 06:31:23;;;;;;;46.43;31.13;;;;;;;15.61;28.84;101711.17;1709857;81;21826;-67
2021/11/17 06:33:50;;;;;;;44.83;30.37;;;;;;;15.93;28.51;101707.41;1734273;81;21886;-67
2021/11/17 06:36:18;;;;;;;39.07;28.83;;;;;;;15.93;28.51;101707.41;1740769;80;21758;-67
2021/11/17 06:38:46;;;;;;;43.33;29.50;;;;;;;16.00;28.98;101704.37;1738771;82;21511;-68
2021/11/17 06:41:14;;;;;;;39.47;29.43;;;;;;;16.06;28.15;101699.67;1738463;81;21728;-66
2021/11/17 06:43:41;;;;;;;42.07;31.20;;;;;;;15.85;28.01;101696.99;1741648;80;21606;-70
2021/11/17 06:46:08;;;;;;;37.97;28.40;;;;;;;15.58;27.77;101699.23;1740668;82;21744;-73
2021/11/17 06:48:36;;;;;;;38.17;29.27;;;;;;;15.70;27.60;101690.42;1740700;82;21735;-70
2021/11/17 06:51:03;;;;;;;42.10;31.17;;;;;;;15.56;28.11;101692.82;1740235;80;21763;-70
2021/11/17 06:53:30;;;;;;;39.80;30.33;;;;;;;15.80;27.76;101689.16;1738043;80;21679;-70
2021/11/17 06:55:57;;;;;;;39.30;28.27;;;;;;;15.77;27.59;101689.52;1740261;82;21693;-69
2021/11/17 06:58:25;;;;;;;43.67;30.67;;;;;;;15.83;27.50;101687.14;1703796;82;21900;-71
2021/11/17 07:00:53;;;;;;;47.77;33.90;;;;;;;15.89;27.61;101678.03;1739352;80;23213;-71
2021/11/17 07:03:20;;;;;;;55.50;35.27;;;;;;;15.60;27.54;101680.13;1773626;79;20990;-70
2021/11/17 07:05:48;;;;;;;51.17;34.07;;;;;;;15.60;27.54;101680.13;1775903;79;20876;-70
2021/11/17 07:08:15;;;;;;;52.70;33.53;;;;;;;15.47;27.53;101683.91;1770795;79;21656;-71
2021/11/17 07:10:42;;;;;;;51.37;33.97;;;;;;;15.13;27.82;101681.77;1774283;80;21668;-70
2021/11/17 07:13:11;;;;;;;49.93;33.97;;;;;;;15.12;28.03;101688.84;1775767;80;21518;-70
2021/11/17 07:15:38;;;;;;;50.73;35.30;;;;;;;15.60;27.65;101679.33;1777368;79;21697;-69
2021/11/17 07:18:06;;;;;;;49.20;33.70;;;;;;;15.18;28.07;101678.10;1775628;79;21665;-72
2021/11/17 07:20:35;;;;;;;52.40;33.53;;;;;;;15.90;27.47;101669.14;1771224;79;21758;-69
2021/11/17 07:23:03;;;;;;;44.67;31.93;;;;;;;15.79;27.95;101663.03;1775780;78;21566;-70
2021/11/17 07:25:31;;;;;;;46.27;34.77;;;;;;;16.25;27.40;101653.08;1772518;79;21646;-70
2021/11/17 07:27:59;;;;;;;52.47;35.17;;;;;;;16.46;27.00;101655.39;1776929;79;21688;-69
2021/11/17 07:30:29;;;;;;;48.73;32.00;;;;;;;16.34;26.80;101652.95;1775896;79;21545;-69
2021/11/17 07:32:56;;;;;;;46.37;33.03;;;;;;;16.05;27.38;101659.41;1768273;79;21713;-70
2021/11/17 07:35:24;;;;;;;49.70;34.07;;;;;;;16.20;27.60;101656.74;1777814;79;21601;-68
2021/11/17 07:37:52;;;;;;;45.93;33.27;;;;;;;16.81;27.45;101654.22;1777395;79;22112;-68
2021/11/17 07:40:19;;;;;;;48.77;34.90;;;;;;;16.81;27.45;101654.22;1774965;79;21063;-70
2021/11/17 07:42:46;;;;;;;56.03;37.87;;;;;;;17.14;27.45;101652.66;1775133;79;21606;-69
2021/11/17 07:45:15;;;;;;;58.97;36.87;;;;;;;17.56;26.67;101656.67;1770308;78;21229;-69
2021/11/17 07:47:43;;;;;;;49.67;32.20;;;;;;;17.77;26.49;101658.41;1777383;78;20975;-69
2021/11/17 07:50:11;;;;;;;59.20;39.07;;;;;;;17.86;26.31;101654.10;1776328;79;20954;-70
2021/11/17 07:52:38;;;;;;;40.57;27.00;;;;;;;17.87;26.40;101659.68;1775235;78;21066;-69
2021/11/17 07:55:10;;;;;;;46.73;27.27;;;;;;;17.98;26.12;101660.95;1770805;79;21491;-69
2021/11/17 07:57:38;;;;;;;40.58;28.30;;;;;;;17.90;26.25;101661.93;1772322;79;21827;-69
2021/11/17 08:00:12;;;;;;;43.77;29.60;;;;;;;17.98;26.13;101662.27;1773979;79;20976;-68
2021/11/17 08:02:39;;;;;;;43.50;30.20;;;;;;;17.88;26.23;101656.05;1774430;78;21089;-69
2021/11/17 08:05:08;;;;;;;44.07;33.20;;;;;;;18.02;26.33;101657.41;1772932;80;21425;-68
2021/11/17 08:07:35;;;;;;;45.63;32.03;;;;;;;18.21;26.00;101648.22;1774371;80;20984;-69
2021/11/17 08:10:05;;;;;;;47.90;30.50;;;;;;;17.92;26.43;101648.56;1778759;79;21569;-70
2021/11/17 08:12:33;;;;;;;45.70;31.07;;;;;;;17.71;26.56;101652.89;1772463;79;20967;-69
2021/11/17 08:15:00;;;;;;;40.43;27.70;;;;;;;18.33;26.12;101650.28;1777480;79;21030;-68
2021/11/17 08:17:28;;;;;;;37.37;27.43;;;;;;;18.37;25.89;101643.58;1779166;78;21124;-68
2021/11/17 08:19:55;;;;;;;38.07;26.77;;;;;;;18.24;25.82;101646.52;1774432;79;21464;-71
2021/11/17 08:22:24;;;;;;;36.17;27.83;;;;;;;18.41;25.84;101642.16;1777180;79;21513;-68
2021/11/17 08:24:51;;;;;;;43.83;31.10;;;;;;;18.42;25.86;101641.17;1775923;80;21077;-69
2021/11/17 08:27:19;;;;;;;42.73;30.87;;;;;;;17.55;26.52;101647.14;1774114;79;21027;-70
2021/11/17 08:29:49;;;;;;;45.30;32.10;;;;;;;17.50;26.65;101644.59;1775267;79;21003;-68
2021/11/17 08:32:17;;;;;;;48.47;31.40;;;;;;;17.54;26.63;101638.90;1775475;78;21023;-67
2021/11/17 08:34:45;;;;;;;50.77;32.83;;;;;;;17.59;26.64;101637.32;1782588;78;21132;-68
2021/11/17 08:37:13;;;;;;;43.67;30.23;;;;;;;17.75;26.57;101626.46;1778946;78;21512;-67
2021/11/17 08:39:41;;;;;;;44.80;27.90;;;;;;;17.69;26.63;101626.39;1778964;78;20990;-72
2021/11/17 08:42:10;;;;;;;36.00;27.30;;;;;;;18.08;26.56;101619.17;1776582;78;21033;-70
2021/11/17 08:44:38;;;;;;;38.20;26.73;;;;;;;18.39;26.35;101612.53;1783384;78;20919;-68
2021/11/17 08:47:08;;;;;;;39.03;28.10;;;;;;;18.34;26.14;101613.14;1778025;78;21153;-68
2021/11/17 08:49:35;;;;;;;27.43;18.87;;;;;;;18.26;26.02;101613.81;1780348;78;20958;-71
2021/11/17 08:52:04;;;;;;;11.90;7.13;;;;;;;18.49;26.26;101608.99;1779660;79;21104;-67
2021/11/17 08:54:32;;;;;;;10.90;6.63;;;;;;;18.57;26.01;101606.66;1780292;78;21104;-67
2021/11/17 08:57:00;;;;;;;10.93;6.77;;;;;;;18.32;26.31;101612.52;1777688;78;21101;-68
2021/11/17 08:59:27;;;;;;;10.73;6.47;;;;;;;18.62;25.82;101607.66;1781903;78;21784;-67
2021/11/17 09:01:56;;;;;;;9.73;5.77;;;;;;;18.85;25.88;101598.55;1779798;78;21057;-66
2021/11/17 09:04:23;;;;;;;9.77;5.83;;;;;;;18.91;25.92;101593.26;1777205;78;21378;-70
2021/11/17 09:06:50;;;;;;;11.77;6.33;;;;;;;18.73;25.62;101588.30;1777654;78;21972;-66
2021/11/17 09:09:18;;;;;;;9.77;6.23;;;;;;;18.65;25.27;101584.01;1776517;78;21065;-71
2021/11/17 09:11:46;;;;;;;10.03;6.27;;;;;;;18.44;25.48;101586.33;1782660;78;21154;-68
2021/11/17 09:14:13;;;;;;;9.67;6.70;;;;;;;18.46;25.85;101586.95;1781068;79;21110;-72
2021/11/17 09:16:41;;;;;;;11.63;6.27;;;;;;;18.95;24.97;101581.77;1779350;78;21021;-67
2021/11/17 09:19:08;;;;;;;10.83;6.23;;;;;;;18.94;25.20;101577.00;1775933;80;20952;-67
2021/11/17 09:21:40;;;;;;;9.63;6.63;;;;;;;18.97;24.96;101578.40;1779056;79;21673;-69
2021/11/17 09:24:08;;;;;;;9.83;6.17;;;;;;;18.78;25.21;101575.28;1782173;79;21111;-72
2021/11/17 09:26:38;;;;;;;11.10;5.83;;;;;;;18.16;25.93;101578.08;1774126;78;21081;-67
2021/11/17 09:29:05;;;;;;;9.67;5.10;;;;;;;18.49;25.84;101568.06;1774325;78;21698;-67
2021/11/17 09:31:34;;;;;;;8.10;4.43;;;;;;;18.57;25.44;101568.37;1770247;78;21688;-74
2021/11/17 09:34:02;;;;;;;7.60;4.50;;;;;;;18.93;25.08;101566.11;1775981;78;21676;-67
2021/11/17 09:36:31;;;;;;;9.97;5.37;;;;;;;19.06;24.56;101565.80;1771945;78;21658;-66
2021/11/17 09:38:58;;;;;;;8.13;5.70;;;;;;;19.40;24.29;101565.48;1779495;79;21542;-68
2021/11/17 09:41:44;;;;;;;9.53;5.77;;;;;;;19.62;24.16;101565.20;1777032;78;21658;-67
2021/11/17 09:44:16;;;;;;;10.10;5.87;;;;;;;19.55;24.37;101607.54;1778176;79;21663;-67
2021/11/17 09:46:44;;;;;;;8.50;5.40;;;;;;;19.27;24.81;101562.06;1776161;78;20856;-67
2021/11/17 09:49:25;;;;;;;11.30;6.53;;;;;;;19.48;24.07;101569.72;1780207;78;21665;-74
2021/11/17 09:51:57;;;;;;;9.60;5.17;;;;;;;19.19;24.56;101572.36;1770477;78;21660;-70
2021/11/17 09:54:46;;;;;;;9.33;5.43;;;;;;;18.87;24.68;101570.91;1775200;78;21022;-68
2021/11/17 09:57:17;;;;;;;10.30;6.17;;;;;;;19.02;24.21;101566.72;1775183;79;22277;-73
2021/11/17 09:59:52;;;;;;;9.03;5.67;;;;;;;18.85;24.13;101565.01;1768615;78;21740;-65
2021/11/17 10:02:42;;;;;;;10.27;7.10;;;;;;;18.56;24.42;101562.28;1779097;78;21164;-66
2021/11/17 10:05:20;;;;;;;18.33;6.80;;;;;;;18.68;24.71;101567.24;1785885;78;22071;-66
2021/11/17 10:13:38;;;;;;;14.30;7.93;;;;;;;19.28;24.07;101557.06;1777443;78;21692;-73
2021/11/17 10:16:05;;;;;;;11.83;6.53;;;;;;;19.02;24.18;101545.58;1779128;78;22867;-75
2021/11/17 10:18:53;;;;;;;12.87;6.97;;;;;;;19.02;24.18;101545.58;1774973;78;21708;-67
2021/11/17 10:21:33;;;;;;;8.80;5.93;;;;;;;18.90;24.59;101535.31;1772302;79;21341;-67
2021/11/17 10:24:08;;;;;;;10.03;5.97;;;;;;;18.90;24.59;101535.31;1778639;79;21518;-69
2021/11/17 10:26:59;;;;;;;11.03;6.67;;;;;;;18.83;24.09;101534.55;1783231;78;21887;-71
2021/11/17 10:29:31;;;;;;;9.30;6.08;;;;;;;18.43;24.22;101524.80;1776596;78;21455;-69
2021/11/17 10:32:21;;;;;;;11.97;6.77;;;;;;;17.89;24.78;101534.20;1778414;79;20958;-67
2021/11/17 10:35:03;;;;;;;10.20;6.80;;;;;;;17.78;25.32;101532.14;1745356;81;22577;-72
2021/11/17 10:37:38;;;;;;;12.20;7.20;;;;;;;18.01;25.05;101525.99;1767800;80;21884;-62
2021/11/17 10:40:20;;;;;;;12.80;7.13;;;;;;;17.98;25.16;101521.11;1775206;79;21381;-67
2021/11/17 10:42:50;;;;;;;13.53;8.10;;;;;;;17.82;25.25;101524.14;1770806;79;21259;-68
2021/11/17 10:45:28;;;;;;;16.13;10.30;;;;;;;17.58;25.47;101519.69;1720045;80;21256;-67
2021/11/17 10:47:56;;;;;;;20.67;11.10;;;;;;;17.64;25.84;101523.34;1767881;80;22529;-67
2021/11/17 10:50:34;;;;;;;17.77;11.53;;;;;;;17.82;25.42;101521.50;1765707;79;21816;-70
2021/11/17 10:53:07;;;;;;;20.07;11.97;;;;;;;17.84;25.15;101516.82;1769408;79;21290;-72
2021/11/17 10:55:45;;;;;;;18.30;12.93;;;;;;;17.23;25.65;101519.73;1770424;79;21845;-71
2021/11/17 10:58:20;;;;;;;20.00;13.10;;;;;;;17.20;25.76;101521.47;1767990;80;21531;-71
2021/11/17 11:00:58;;;;;;;19.03;12.27;;;;;;;16.71;26.02;101513.66;1764568;79;21138;-70
2021/11/17 11:03:30;;;;;;;16.77;10.93;;;;;;;16.42;26.49;101511.52;1767151;79;21287;-74
2021/11/17 11:06:26;;;;;;;18.30;12.05;;;;;;;16.48;26.37;101508.64;1773959;79;21248;-70
2021/11/17 11:09:14;;;;;;;25.60;13.47;;;;;;;16.42;26.49;101508.08;1772404;79;21161;-69
2021/11/17 11:11:44;;;;;;;18.57;11.80;;;;;;;16.21;26.86;101511.06;1772858;79;21233;-69
2021/11/17 11:14:25;;;;;;;24.10;12.43;;;;;;;15.99;27.06;101508.94;1744670;80;21170;-67
2021/11/17 11:17:10;;;;;;;32.53;16.70;;;;;;;15.62;27.38;101508.63;1750950;79;21267;-71
2021/11/17 11:19:37;;;;;;;26.20;15.18;;;;;;;15.49;27.79;101501.89;1770030;80;21232;-78
2021/11/17 11:22:19;;;;;;;18.57;12.17;;;;;;;15.49;27.81;101504.05;1776937;79;22388;-69
2021/11/17 11:24:49;;;;;;;28.27;13.13;;;;;;;15.66;27.47;101503.34;1771864;79;21538;-65
2021/11/17 11:27:27;;;;;;;20.07;12.67;;;;;;;15.48;27.65;101504.20;1777094;79;21435;-75
2021/11/17 11:30:09;;;;;;;25.02;13.50;;;;;;;15.70;27.59;101503.28;1775724;79;21294;-74
2021/11/17 11:32:41;;;;;;;20.48;11.90;;;;;;;15.84;27.32;101499.48;1777461;79;20980;-65
2021/11/17 11:35:14;;;;;;;17.50;11.28;;;;;;;15.93;27.39;101494.41;1782912;78;21782;-74
2021/11/17 11:37:49;;;;;;;20.68;12.73;;;;;;;16.11;27.22;101488.70;1778007;78;21087;-80
2021/11/17 11:40:24;;;;;;;24.02;14.33;;;;;;;16.23;26.96;101495.89;1782578;78;21058;-68
2021/11/17 11:43:17;;;;;;;19.07;12.95;;;;;;;16.13;26.98;101490.63;1787386;78;21058;-72
2021/11/17 11:45:50;;;;;;;18.15;12.23;;;;;;;15.90;27.14;101485.57;1776395;78;21116;-66
2021/11/17 11:48:48;;;;;;;19.45;11.97;;;;;;;15.99;27.21;101483.14;1782890;78;21099;-72
2021/11/17 11:51:35;;;;;;;23.00;13.62;;;;;;;15.67;27.47;101483.12;1781850;79;21034;-65
2021/11/17 11:54:19;;;;;;;20.08;13.62;;;;;;;15.73;27.36;101480.56;1781275;78;20898;-65
2021/11/17 11:57:04;;;;;;;23.38;13.65;;;;;;;15.52;27.39;101485.25;1741945;82;21431;-67
2021/11/17 11:59:31;;;;;;;23.27;14.40;;;;;;;15.47;27.58;101478.94;1738632;82;20900;-66
2021/11/17 12:02:09;;;;;;;25.10;14.78;;;;;;;15.20;27.87;101477.81;1784016;78;21131;-69
2021/11/17 12:04:44;;;;;;;25.05;14.53;;;;;;;15.24;27.90;101478.57;1751377;78;21061;-68
2021/11/17 12:07:24;;;;;;;21.20;13.30;;;;;;;15.49;27.83;101475.61;1781804;78;21250;-69
2021/11/17 12:10:21;;;;;;;25.68;13.15;;;;;;;15.56;27.76;101472.55;1783557;80;20897;-74
2021/11/17 12:12:48;;;;;;;22.20;13.80;;;;;;;15.81;27.60;101475.18;1735526;81;22614;-67
2021/11/17 12:15:24;;;;;;;27.37;14.45;;;;;;;15.76;27.35;101475.44;1770603;80;22055;-75
2021/11/17 12:18:08;;;;;;;22.95;14.10;;;;;;;15.51;27.37;101470.49;1774887;78;21009;-68
2021/11/17 12:20:40;;;;;;;22.73;14.87;;;;;;;15.22;27.69;101473.98;1783198;80;20994;-66
2021/11/17 12:23:21;;;;;;;22.30;13.62;;;;;;;15.07;27.84;101471.88;1782794;78;21477;-76
2021/11/17 12:26:00;;;;;;;28.38;13.95;;;;;;;15.28;27.73;101468.01;1780242;79;20987;-69
2021/11/17 12:28:27;;;;;;;25.82;14.68;;;;;;;15.19;27.71;101466.50;1784020;80;22209;-69
2021/11/17 12:31:04;;;;;;;18.70;12.10;;;;;;;15.14;27.75;101461.47;1750422;80;44183;-69
2021/11/17 12:33:45;;;;;;;21.50;13.05;;;;;;;15.06;27.69;101461.06;1767174;78;20997;-68
2021/11/17 12:36:33;;;;;;;25.43;14.73;;;;;;;14.76;27.83;101463.70;1704950;81;26918;-76
2021/11/17 12:39:14;;;;;;;24.23;15.60;;;;;;;14.47;28.11;101459.70;1744310;79;21071;-68
2021/11/17 12:41:41;;;;;;;21.17;11.93;;;;;;;14.27;28.53;101458.91;1743000;79;21233;-68
2021/11/17 12:44:33;;;;;;;208.28;186.07;;;;;;;14.27;28.53;101456.28;1741079;81;20951;-68
2021/11/17 12:47:11;;;;;;;60.08;47.85;;;;;;;14.11;28.78;101467.73;1738088;81;21109;-68
2021/11/17 12:49:53;;;;;;;33.33;22.95;;;;;;;13.92;28.90;101460.84;1742825;79;21074;-68
2021/11/17 12:52:30;;;;;;;28.60;16.48;;;;;;;13.92;29.00;101460.84;1707239;81;20984;-69
2021/11/17 12:55:16;;;;;;;21.60;13.48;;;;;;;13.99;28.91;101461.28;1740848;80;21146;-76
2021/11/17 12:57:53;;;;;;;22.93;12.98;;;;;;;12.81;30.07;101475.78;1740174;81;20939;-73
2021/11/17 13:00:32;;;;;;;20.72;12.88;;;;;;;12.57;30.21;101471.39;1739466;79;21014;-67
2021/11/17 13:03:03;;;;;;;23.95;13.98;;;;;;;11.71;31.49;101474.97;1703350;81;21150;-71
2021/11/17 13:05:39;;;;;;;23.83;13.20;;;;;;;11.54;31.88;101478.83;1737668;80;27310;-73
2021/11/17 13:08:12;;;;;;;25.40;15.45;;;;;;;11.62;32.10;101469.70;1737081;81;21155;-70
2021/11/17 13:10:49;;;;;;;26.93;15.75;;;;;;;11.58;32.07;101471.00;1735483;81;20963;-68
2021/11/17 13:13:24;;;;;;;33.18;19.30;;;;;;;11.34;32.33;101474.37;1671596;83;21122;-76
2021/11/17 13:16:11;;;;;;;90.95;43.55;;;;;;;11.28;32.48;101471.56;1733977;79;21113;-77
2021/11/17 13:18:46;;;;;;;124.18;55.08;;;;;;;11.14;32.78;101478.22;1708899;81;21023;-68
2021/11/17 13:21:28;;;;;;;51.50;24.00;;;;;;;10.84;33.21;101478.23;1733737;79;21085;-68
2021/11/17 13:24:23;;;;;;;37.60;20.70;;;;;;;10.65;33.31;101483.17;1730692;81;21392;-67
2021/11/17 13:26:55;;;;;;;40.75;23.15;;;;;;;10.45;33.63;101481.22;1699799;83;21312;-67
2021/11/17 13:29:32;;;;;;;646.80;331.80;;;;;;;10.01;34.16;101485.57;1733564;79;21059;-68
2021/11/17 13:32:16;;;;;;;414.30;156.32;;;;;;;10.12;34.21;101485.34;1737311;79;21516;-74
2021/11/17 13:34:49;;;;;;;1264.95;481.80;;;;;;;9.97;34.33;101481.14;1760969;79;21098;-71
2021/11/17 13:37:36;;;;;;;213.95;77.10;;;;;;;9.73;35.04;101482.52;1767447;79;21121;-68
2021/11/17 13:40:17;;;;;;;140.65;48.70;;;;;;;9.47;35.42;101484.19;1770816;80;21038;-69
2021/11/17 13:42:46;;;;;;;989.02;533.58;;;;;;;9.09;35.87;101483.44;1771882;78;21117;-67
2021/11/17 13:45:19;;;;;;;275.18;125.10;;;;;;;8.83;36.47;101489.75;1768694;79;21575;-73
2021/11/17 13:47:46;;;;;;;207.62;88.10;;;;;;;8.83;36.52;101489.75;1775246;79;22361;-68
2021/11/17 13:50:15;;;;;;;322.90;121.70;;;;;;;8.56;37.07;101493.55;1765722;80;20971;-69
2021/11/17 13:52:44;;;;;;;245.90;104.53;;;;;;;8.53;37.31;101494.18;1766138;80;20983;-68
2021/11/17 13:55:17;;;;;;;332.50;151.93;;;;;;;8.20;37.80;101493.28;1770874;79;20880;-70
2021/11/17 13:57:44;;;;;;;156.90;79.40;;;;;;;8.11;38.02;101487.63;1766166;80;22417;-72
2021/11/17 14:00:12;;;;;;;196.63;101.42;;;;;;;7.98;38.32;101484.80;1768297;79;21122;-69
2021/11/17 14:02:39;;;;;;;417.03;251.20;;;;;;;7.78;38.66;101487.86;1769646;80;20910;-70
2021/11/17 14:05:08;;;;;;;160.00;90.35;;;;;;;7.63;39.03;101490.49;1768168;79;21564;-69
2021/11/17 14:07:35;;;;;;;385.00;196.72;;;;;;;7.62;39.18;101486.75;1766941;79;21098;-74
2021/11/17 14:10:04;;;;;;;173.90;81.37;;;;;;;7.49;39.49;101492.97;1768959;79;21007;-68
2021/11/17 14:12:32;;;;;;;147.00;59.48;;;;;;;7.43;39.75;101488.33;1768401;80;21127;-66
2021/11/17 14:14:59;;;;;;;172.13;83.35;;;;;;;7.28;40.09;101481.39;1768373;80;20970;-67
2021/11/17 14:17:27;;;;;;;123.13;50.35;;;;;;;7.15;40.57;101483.38;1769997;79;21026;-67
2021/11/17 14:19:54;;;;;;;126.62;51.25;;;;;;;6.89;41.04;101484.27;1776339;79;20971;-68
2021/11/17 14:22:23;;;;;;;135.40;53.85;;;;;;;6.90;41.16;101485.13;1764068;80;21583;-67
2021/11/17 14:24:57;;;;;;;165.75;59.18;;;;;;;6.75;41.47;101483.33;1768775;80;21159;-67
2021/11/17 14:27:22;;;;;;;117.57;50.55;;;;;;;6.61;41.78;101487.06;1767144;80;22406;-67
2021/11/17 14:29:54;;;;;;;85.75;40.73;;;;;;;6.67;41.69;101487.04;1770443;80;20972;-66
2021/11/17 14:32:34;;;;;;;80.40;38.20;;;;;;;6.59;41.99;101482.47;1774543;80;21568;-67